Terminal Aerodrome Forecast
Issued by NWS Tuscon, AZ

Home | Current Version | Previous Version | Text Only | Print | Product List | Glossary On
Versions: 1 2 3 4 5 6 7 8 9 10 11 12 13 14 15 16 17
000
FTUS45 KTWC 302300 AAA
TAFDUG
TAF AMD
KDUG 302351Z 3100/3124 11010KT P6SM -SHRA SCT010 OVC040
      TEMPO 3100/3102 3SM SHRA BKN015
     FM310400 12008KT 6SM -SHRA BR SCT010 OVC030
     FM311200 09005KT P6SM VCSH BKN015 OVC060=

USA.gov is the U.S. government's official web portal to all federal, state and local government web resources and services.